CDT,Max TemperatureF,Mean TemperatureF,Min TemperatureF,Max Dew PointF,MeanDew PointF,Min DewpointF,Max Humidity, Mean Humidity, Min Humidity, Max Sea Level PressureIn, Mean Sea Level PressureIn, Min Sea Level PressureIn, Max VisibilityMiles, Mean VisibilityMiles, Min VisibilityMiles, Max Wind SpeedMPH, Mean Wind SpeedMPH, Max Gust SpeedMPH,PrecipitationIn, CloudCover, Events, WindDirDegrees
2013-5-1,48,40,30,37,29,24,100,75,50,30.50,30.32,30.04,10,8,1,23,16,29,0.07,7,Rain-Snow,347
2013-5-2,45,38,31,28,24,20,81,61,40,30.60,30.52,30.45,10,10,10,29,20,36,0.00,1,,351
2013-5-3,46,35,24,33,24,19,92,66,34,30.43,30.26,30.14,10,10,10,23,14,36,0.00,4,,5
2013-5-4,38,35,32,38,35,32,100,98,94,30.19,30.14,30.09,10,6,0,22,15,28,0.00,8,Fog-Rain,9
2013-5-5,49,42,36,44,40,37,100,93,81,30.19,30.17,30.13,10,6,0,12,8,,0.00,8,Fog-Rain-Snow,345
2013-5-6,64,52,41,47,44,41,99,80,51,30.17,30.12,30.06,10,10,4,9,5,,0.00,5,,271
2013-5-7,73,56,39,50,42,36,100,61,27,30.10,30.04,29.98,10,9,2,20,4,24,0.00,2,Rain,192
2013-5-8,58,56,53,56,53,46,99,93,65,30.02,30.00,29.97,10,5,2,13,4,,1.02,8,Rain,58
2013-5-9,57,50,44,54,51,41,100,95,87,30.12,30.03,29.96,10,7,2,21,12,28,0.21,8,Rain,17
2013-5-10,65,51,37,42,34,25,89,55,26,30.14,30.08,29.97,10,10,10,23,10,34,0.00,1,,332
2013-5-11,51,42,34,32,23,14,72,46,23,30.26,30.20,30.06,10,10,10,30,19,39,0.00,1,,325
2013-5-12,59,44,29,28,19,14,74,41,18,30.27,30.20,30.11,10,10,10,14,8,20,0.00,0,,303
2013-5-13,84,62,41,46,36,22,63,39,24,30.11,29.92,29.74,10,10,10,31,11,41,0.00,1,,198
2013-5-14,93,74,54,47,39,22,67,31,11,29.84,29.70,29.60,10,10,10,30,14,40,0.00,0,,268
2013-5-15,75,62,48,44,40,35,75,44,26,30.00,29.92,29.85,10,10,7,14,7,16,0.00,2,Rain,322
2013-5-16,83,65,48,59,42,31,91,48,16,29.94,29.89,29.83,10,10,7,21,4,29,0.08,2,Rain-Thunderstorm,135
2013-5-17,79,69,59,66,61,58,100,83,47,29.91,29.88,29.85,10,8,3,18,9,25,0.33,5,Rain-Thunderstorm,138
2013-5-18,83,72,62,63,59,54,94,67,36,29.92,29.85,29.77,10,10,7,26,13,32,0.00,1,Thunderstorm,172
2013-5-19,71,66,61,63,62,60,99,86,68,29.76,29.66,29.56,10,8,4,23,11,29,0.22,4,Rain-Thunderstorm,153
2013-5-20,66,61,57,61,55,50,99,83,58,29.58,29.53,29.49,10,8,2,26,13,32,0.00,7,Rain,182
2013-5-21,58,54,50,55,51,48,99,87,72,29.70,29.59,29.51,10,9,2,15,8,18,0.05,8,Rain,232
2013-5-22,49,48,45,50,46,44,100,96,89,30.03,29.82,29.70,10,6,2,21,15,28,0.03,8,Rain,2
2013-5-23,63,52,42,45,37,24,95,62,23,30.32,30.23,30.03,10,10,10,17,10,21,0.00,0,,33
2013-5-24,69,54,38,53,41,33,86,64,30,30.33,30.24,30.12,10,10,3,24,12,33,0.19,3,Rain-Thunderstorm,136
2013-5-25,58,53,48,55,50,48,99,89,75,30.15,30.12,30.09,10,8,1,25,18,30,0.00,8,Rain,123
2013-5-26,54,51,48,54,50,48,100,99,96,30.15,30.06,29.95,10,3,0,28,17,33,0.36,8,Fog-Rain-Thunderstorm,96
2013-5-27,57,54,51,57,54,51,100,99,96,29.99,29.87,29.79,10,3,0,21,11,28,0.30,8,Fog-Rain-Thunderstorm,72
2013-5-28,66,59,53,59,56,54,100,93,75,29.80,29.75,29.70,10,5,0,13,6,,0.01,6,Fog,57
2013-5-29,77,65,53,68,61,54,100,89,62,29.80,29.69,29.59,10,6,0,24,10,30,0.14,6,Fog-Rain-Thunderstorm,140
2013-5-30,72,66,61,62,59,49,97,79,57,29.59,29.53,29.49,10,10,7,29,18,34,0.03,4,Rain-Thunderstorm,166
2013-5-31,69,62,54,54,49,44,88,66,41,29.59,29.53,29.48,10,10,10,34,20,43,0.00,4,,208